Shiloh, North Carolina
Current Conditions -  °F | °C
As of 7:54 AM on Thursday 23 Oct 2014 (Local Time) from KECG Reporting Station
Overcast Overcast  
Wind Chill: 52°   Ceiling: 3800
Heat Index: 52°   Visibility: 10mi
Dew Point: 43°   Wind: 14mph
Humidity: 71%   Direction: 280°W
Pressure: 29.91"   Gusts: NA
Location:  36.27°N, 76.08°W
Report Text: KECG 231154Z 28012KT 10SM OVC038 11/06 A2991 RMK AO2 SLP129 T01110061 10133 20100 51008
Loading
Personal Weather Stations






























Interactive Weather Map
Tropical Storm Tracking
New forecast layout! Learn more

10-Day Weather Forecast

Advertisements
Track Severe Weather on mobile